createdAt,value
2023-05-04T00:00:50.356Z,8.20
2023-05-04T00:03:18.777Z,8.40
2023-05-04T00:05:48.044Z,7.85
2023-05-04T00:08:16.595Z,7.30
2023-05-04T00:10:45.226Z,7.50
2023-05-04T00:13:13.882Z,7.00
2023-05-04T00:15:42.064Z,10.02
2023-05-04T00:18:11.387Z,8.00
2023-05-04T00:20:39.806Z,7.43
2023-05-04T00:23:08.180Z,8.18
2023-05-04T00:25:36.328Z,5.95
2023-05-04T00:28:04.561Z,7.63
2023-05-04T00:30:32.794Z,6.63
2023-05-04T00:33:01.071Z,8.07
2023-05-04T00:35:31.856Z,6.72
2023-05-04T00:37:59.983Z,7.20
2023-05-04T00:40:27.994Z,6.30
2023-05-04T00:42:56.309Z,8.18
2023-05-04T00:45:24.456Z,7.95
2023-05-04T00:47:53.382Z,6.57
2023-05-04T00:50:21.664Z,6.90
2023-05-04T00:52:53.667Z,8.55
2023-05-04T00:55:22.736Z,8.23
2023-05-04T00:57:52.118Z,6.57
2023-05-04T01:00:21.222Z,8.07
2023-05-04T01:02:50.754Z,8.18
2023-05-04T01:05:18.953Z,7.40
2023-05-04T01:07:58.298Z,7.43
2023-05-04T01:10:31.539Z,6.63
2023-05-04T01:13:06.414Z,6.75
2023-05-04T01:15:36.011Z,6.10
2023-05-04T01:18:04.220Z,7.63
2023-05-04T01:20:33.194Z,7.53
2023-05-04T01:23:03.597Z,7.82
2023-05-04T01:25:35.023Z,7.18
2023-05-04T01:28:09.842Z,7.88
2023-05-04T01:30:41.383Z,7.60
2023-05-04T01:33:10.288Z,8.40
2023-05-04T01:35:39.108Z,8.23
2023-05-04T01:38:09.651Z,7.88
2023-05-04T01:40:37.758Z,7.60
2023-05-04T01:43:05.929Z,8.43
2023-05-04T01:45:33.914Z,7.97
2023-05-04T01:48:02.162Z,8.88
2023-05-04T01:50:30.784Z,8.70
2023-05-04T01:52:59.234Z,8.43
2023-05-04T01:55:28.881Z,9.02
2023-05-04T01:57:57.370Z,8.68
2023-05-04T02:00:25.944Z,8.35
2023-05-04T02:02:54.049Z,8.93
2023-05-04T02:05:23.560Z,10.48
2023-05-04T02:07:51.677Z,8.65
2023-05-04T02:10:20.392Z,7.68
2023-05-04T02:12:49.863Z,9.10
2023-05-04T02:15:18.145Z,8.30
2023-05-04T02:17:46.519Z,9.35
2023-05-04T02:20:15.313Z,9.57
2023-05-04T02:22:43.710Z,10.38
2023-05-04T02:25:11.960Z,9.60
2023-05-04T02:27:40.859Z,9.30
2023-05-04T02:30:11.960Z,9.02
2023-05-04T02:32:40.281Z,8.57
2023-05-04T02:35:08.734Z,9.35
2023-05-04T02:37:36.888Z,8.32
2023-05-04T02:40:05.584Z,9.25
2023-05-04T02:42:33.830Z,8.07
2023-05-04T02:45:01.927Z,8.75
2023-05-04T02:47:31.537Z,8.32
2023-05-04T02:49:59.624Z,9.23
2023-05-04T02:52:27.660Z,7.95
2023-05-04T02:54:55.856Z,9.63
2023-05-04T02:57:24.019Z,9.80
2023-05-04T02:59:52.728Z,8.32
2023-05-04T03:02:21.324Z,10.35
2023-05-04T03:04:51.094Z,9.18
2023-05-04T03:07:19.439Z,10.02
2023-05-04T03:09:48.046Z,10.23
2023-05-04T03:12:16.694Z,9.88
2023-05-04T03:14:45.106Z,9.00
2023-05-04T03:17:13.425Z,11.30
2023-05-04T03:19:41.643Z,9.55
2023-05-04T03:22:11.262Z,10.57
2023-05-04T03:24:40.014Z,10.30
2023-05-04T03:27:09.125Z,9.18
2023-05-04T03:29:37.500Z,10.45
2023-05-04T03:32:06.315Z,10.07
2023-05-04T03:34:34.681Z,9.65
2023-05-04T03:37:02.853Z,10.23
2023-05-04T03:39:32.332Z,10.02
2023-05-04T03:42:01.123Z,9.27
2023-05-04T03:44:29.493Z,9.73
2023-05-04T03:46:57.848Z,9.20
2023-05-04T03:49:25.955Z,9.65
2023-05-04T03:51:54.359Z,9.57
2023-05-04T03:54:22.414Z,10.85
2023-05-04T03:56:52.378Z,10.80
2023-05-04T03:59:23.685Z,10.38
2023-05-04T04:01:51.898Z,11.02
2023-05-04T04:04:20.986Z,11.57
2023-05-04T04:06:49.280Z,11.23
2023-05-04T04:09:17.323Z,12.32
2023-05-04T04:11:46.098Z,10.32
2023-05-04T04:14:16.095Z,9.15
2023-05-04T04:16:44.699Z,10.85
2023-05-04T04:19:15.624Z,11.73
2023-05-04T04:21:43.580Z,10.07
2023-05-04T04:24:11.709Z,11.23
2023-05-04T04:26:40.139Z,10.02
2023-05-04T04:29:08.096Z,11.73
2023-05-04T04:31:38.134Z,10.23
2023-05-04T04:34:06.478Z,10.48
2023-05-04T04:36:34.978Z,10.75
2023-05-04T04:39:06.209Z,11.18
2023-05-04T04:41:34.348Z,10.77
2023-05-04T04:44:02.630Z,10.68
2023-05-04T04:46:31.305Z,11.07
2023-05-04T04:49:00.903Z,12.80
2023-05-04T04:51:29.476Z,11.07
2023-05-04T04:53:57.551Z,11.52
2023-05-04T04:56:26.508Z,11.52
2023-05-04T04:58:54.468Z,14.10
2023-05-04T05:01:22.528Z,14.20
2023-05-04T05:03:51.071Z,14.60
2023-05-04T05:06:21.115Z,13.77
2023-05-04T05:08:49.291Z,13.15
2023-05-04T05:11:17.556Z,14.65
2023-05-04T05:13:45.680Z,16.02
2023-05-04T05:16:13.758Z,15.27
2023-05-04T05:18:42.364Z,11.68
2023-05-04T05:21:10.359Z,13.05
2023-05-04T05:23:39.686Z,12.65
2023-05-04T05:26:07.699Z,13.75
2023-05-04T05:28:35.748Z,11.60
2023-05-04T05:31:03.882Z,12.93
2023-05-04T05:33:31.872Z,12.70
2023-05-04T05:35:59.819Z,12.65
2023-05-04T05:38:28.450Z,14.55
2023-05-04T05:40:58.676Z,12.65
2023-05-04T05:43:27.023Z,13.20
2023-05-04T05:45:55.246Z,12.88
2023-05-04T05:48:23.198Z,13.98
2023-05-04T05:50:51.432Z,12.30
2023-05-04T05:53:19.604Z,13.50
2023-05-04T05:55:47.988Z,13.80
2023-05-04T05:58:17.237Z,12.88
2023-05-04T06:00:45.167Z,13.38
2023-05-04T06:03:13.597Z,13.50
2023-05-04T06:05:41.698Z,14.98
2023-05-04T06:08:09.740Z,13.48
2023-05-04T06:10:37.935Z,13.50
2023-05-04T06:13:06.088Z,14.07
2023-05-04T06:15:36.661Z,15.57
2023-05-04T06:18:05.167Z,15.77
2023-05-04T06:20:33.429Z,14.00
2023-05-04T06:23:01.388Z,13.43
2023-05-04T06:25:29.580Z,15.27
2023-05-04T06:27:58.161Z,15.38
2023-05-04T06:30:26.758Z,16.63
2023-05-04T06:32:56.385Z,14.68
2023-05-04T06:35:24.900Z,12.40
2023-05-04T06:37:53.186Z,13.35
2023-05-04T06:40:21.770Z,13.38
2023-05-04T06:42:49.935Z,13.25
2023-05-04T06:45:18.269Z,16.17
2023-05-04T06:47:46.887Z,14.32
2023-05-04T06:50:17.099Z,17.05
2023-05-04T06:52:46.438Z,14.38
2023-05-04T06:55:15.109Z,15.65
2023-05-04T06:57:43.481Z,17.00
2023-05-04T07:00:12.719Z,14.75
2023-05-04T07:02:40.780Z,14.00
2023-05-04T07:05:09.749Z,14.25
2023-05-04T07:07:39.639Z,12.43
2023-05-04T07:10:08.668Z,12.63
2023-05-04T07:12:37.679Z,13.18
2023-05-04T07:15:06.974Z,12.65
2023-05-04T07:17:34.919Z,13.43
2023-05-04T07:20:03.661Z,13.90
2023-05-04T07:22:32.576Z,14.73
2023-05-04T07:25:02.239Z,14.70
2023-05-04T07:27:30.414Z,14.45
2023-05-04T07:29:58.356Z,12.90
2023-05-04T07:32:26.338Z,15.15
2023-05-04T07:34:54.471Z,14.60
2023-05-04T07:37:22.473Z,12.43
2023-05-04T07:39:50.752Z,13.38
2023-05-04T07:42:20.201Z,14.07
2023-05-04T07:44:48.549Z,13.93
2023-05-04T07:47:16.683Z,10.73
2023-05-04T07:49:44.974Z,12.77
2023-05-04T07:52:13.715Z,11.02
2023-05-04T07:54:42.274Z,10.10
2023-05-04T07:57:10.721Z,11.88
2023-05-04T07:59:40.466Z,10.35
2023-05-04T08:02:08.659Z,11.60
2023-05-04T08:04:36.988Z,13.80
2023-05-04T08:07:05.244Z,10.05
2023-05-04T08:09:33.515Z,12.00
2023-05-04T08:12:02.578Z,10.45
2023-05-04T08:14:30.579Z,10.48
2023-05-04T08:17:00.763Z,11.77
2023-05-04T08:19:28.658Z,10.98
2023-05-04T08:21:56.678Z,9.18
2023-05-04T08:24:24.980Z,10.65
2023-05-04T08:27:06.535Z,11.05
2023-05-04T08:29:37.100Z,12.93
2023-05-04T08:32:07.897Z,9.65
2023-05-04T08:34:36.653Z,10.00
2023-05-04T08:37:05.067Z,11.88
2023-05-04T08:39:33.334Z,9.60
2023-05-04T08:42:02.207Z,10.07
2023-05-04T08:44:30.975Z,9.90
2023-05-04T08:46:59.010Z,7.70
2023-05-04T08:49:29.201Z,10.70
2023-05-04T08:51:58.762Z,11.18
2023-05-04T08:54:27.444Z,10.93
2023-05-04T08:56:56.964Z,8.40
2023-05-04T08:59:26.556Z,10.98
2023-05-04T09:02:00.016Z,8.63
2023-05-04T09:04:29.895Z,9.35
2023-05-04T09:06:58.819Z,10.00
2023-05-04T09:09:29.918Z,9.35
2023-05-04T09:11:59.064Z,8.55
2023-05-04T09:14:35.678Z,9.30
2023-05-04T09:17:04.382Z,8.38
2023-05-04T09:19:36.912Z,11.45
2023-05-04T09:22:15.789Z,9.27
2023-05-04T09:24:44.289Z,8.43
2023-05-04T09:27:13.647Z,9.57
2023-05-04T09:29:43.146Z,8.38
2023-05-04T09:32:15.367Z,7.30
2023-05-04T09:34:52.027Z,8.95
2023-05-04T09:37:21.345Z,8.90
2023-05-04T09:39:56.459Z,7.97
2023-05-04T09:42:25.140Z,9.88
2023-05-04T09:45:01.853Z,9.93
2023-05-04T09:47:37.601Z,8.43
2023-05-04T09:50:20.971Z,9.30
2023-05-04T09:52:50.675Z,8.65
2023-05-04T09:55:20.528Z,9.52
2023-05-04T09:57:50.601Z,7.78
2023-05-04T10:00:20.564Z,7.38
2023-05-04T10:02:49.607Z,7.15
2023-05-04T10:05:21.709Z,9.52
2023-05-04T10:07:50.239Z,8.93
2023-05-04T10:10:18.312Z,10.57
2023-05-04T10:12:46.987Z,11.10
2023-05-04T10:15:17.047Z,12.20
2023-05-04T10:18:04.894Z,10.38
2023-05-04T10:20:53.034Z,9.98
2023-05-04T10:23:44.305Z,7.43
2023-05-04T10:26:32.528Z,10.27
2023-05-04T10:29:13.779Z,9.75
2023-05-04T10:31:42.150Z,8.75
2023-05-04T10:34:11.263Z,7.65
2023-05-04T10:36:42.457Z,8.73
2023-05-04T10:39:19.861Z,7.15
2023-05-04T10:42:04.883Z,8.95
2023-05-04T10:44:33.902Z,7.88
2023-05-04T10:47:04.303Z,8.23
2023-05-04T10:49:33.036Z,8.45
2023-05-04T10:52:13.781Z,9.63
2023-05-04T10:54:43.648Z,9.07
2023-05-04T10:57:13.830Z,9.57
2023-05-04T10:59:42.559Z,9.40
2023-05-04T11:02:10.842Z,8.90
2023-05-04T11:04:39.421Z,9.07
2023-05-04T11:07:09.123Z,7.97
2023-05-04T11:09:39.909Z,10.88
2023-05-04T11:12:10.637Z,9.68
2023-05-04T11:14:42.839Z,8.32
2023-05-04T11:19:49.742Z,8.25
2023-05-04T11:22:18.033Z,10.88
2023-05-04T11:24:48.883Z,8.85
2023-05-04T11:27:24.459Z,8.95
2023-05-04T11:30:08.765Z,9.88
2023-05-04T11:32:38.085Z,11.10
2023-05-04T11:35:09.883Z,10.55
2023-05-04T11:37:42.004Z,10.40
2023-05-04T11:40:13.473Z,9.93
2023-05-04T11:42:43.132Z,11.85
2023-05-04T11:45:15.877Z,10.63
2023-05-04T11:47:45.296Z,8.57
2023-05-04T11:50:15.155Z,11.10
2023-05-04T11:52:44.465Z,11.25
2023-05-04T11:55:15.188Z,11.23
2023-05-04T11:57:43.450Z,12.55
2023-05-04T12:00:13.054Z,11.07
2023-05-04T12:02:41.209Z,11.35
2023-05-04T12:05:15.697Z,10.40
2023-05-04T12:07:44.047Z,11.80
2023-05-04T12:10:13.828Z,12.55
2023-05-04T12:12:41.880Z,13.55
2023-05-04T12:15:11.329Z,8.20
2023-05-04T12:17:43.236Z,12.00
2023-05-04T12:20:12.112Z,8.88
2023-05-04T12:22:40.614Z,11.13
2023-05-04T12:25:11.301Z,11.88
2023-05-04T12:27:43.394Z,10.60
2023-05-04T12:30:13.926Z,10.13
2023-05-04T12:32:43.626Z,11.40
2023-05-04T12:35:12.037Z,10.68
2023-05-04T12:37:40.253Z,12.85
2023-05-04T12:40:27.387Z,10.80
2023-05-04T12:42:58.680Z,12.02
2023-05-04T12:45:27.578Z,10.25
2023-05-04T12:47:55.660Z,11.60
2023-05-04T12:50:23.710Z,10.00
2023-05-04T12:53:04.385Z,9.50
2023-05-04T12:55:32.758Z,11.50
2023-05-04T12:58:17.749Z,10.52
2023-05-04T13:00:49.135Z,9.60
2023-05-04T13:03:18.863Z,10.63
2023-05-04T13:05:47.508Z,9.98
2023-05-04T13:08:16.095Z,11.23
2023-05-04T13:10:46.218Z,14.88
2023-05-04T13:13:18.106Z,12.98
2023-05-04T13:15:46.236Z,12.70
2023-05-04T13:18:14.231Z,11.18
2023-05-04T13:20:42.481Z,13.27
2023-05-04T13:23:10.678Z,12.60
2023-05-04T13:25:38.877Z,13.52
2023-05-04T13:28:06.818Z,12.07
2023-05-04T13:30:36.305Z,11.35
2023-05-04T13:33:13.276Z,11.35
2023-05-04T13:35:45.064Z,16.35
2023-05-04T13:38:12.989Z,10.57
2023-05-04T13:40:40.939Z,13.02
2023-05-04T13:43:09.149Z,13.27
2023-05-04T13:45:39.120Z,13.27
2023-05-04T13:48:07.509Z,12.85
2023-05-04T13:50:35.805Z,11.80
2023-05-04T13:53:04.363Z,11.25
2023-05-04T13:55:32.962Z,9.98
2023-05-04T13:58:00.870Z,8.05
2023-05-04T14:00:29.212Z,11.68
2023-05-04T14:02:58.711Z,8.52
2023-05-04T14:05:26.840Z,8.95
2023-05-04T14:07:54.808Z,10.02
2023-05-04T14:10:23.326Z,9.80
2023-05-04T14:12:51.267Z,11.38
2023-05-04T14:15:22.872Z,9.63
2023-05-04T14:17:51.280Z,9.70
2023-05-04T14:20:20.608Z,10.65
2023-05-04T14:22:48.592Z,9.13
2023-05-04T14:25:17.168Z,8.75
2023-05-04T14:27:45.447Z,12.10
2023-05-04T14:30:14.348Z,9.02
2023-05-04T14:32:42.956Z,11.48
2023-05-04T14:35:12.509Z,10.32
2023-05-04T14:37:41.911Z,11.90
2023-05-04T14:40:11.545Z,10.15
2023-05-04T14:42:40.068Z,11.50
2023-05-04T14:45:09.929Z,9.40
2023-05-04T14:47:38.353Z,9.25
2023-05-04T14:50:08.073Z,9.93
2023-05-04T14:52:36.557Z,9.85
2023-05-04T14:55:07.225Z,10.30
2023-05-04T14:57:35.268Z,12.18
2023-05-04T15:00:08.332Z,10.68
2023-05-04T15:02:38.856Z,9.25
2023-05-04T15:05:10.307Z,8.57
2023-05-04T15:07:38.371Z,9.30
2023-05-04T15:10:10.492Z,10.75
2023-05-04T15:12:39.665Z,8.05
2023-05-04T15:15:08.897Z,11.90
2023-05-04T15:17:37.051Z,8.40
2023-05-04T15:20:05.778Z,6.90
2023-05-04T15:22:33.968Z,10.23
2023-05-04T15:25:02.800Z,8.73
2023-05-04T15:27:32.960Z,8.68
2023-05-04T15:30:01.209Z,8.45
2023-05-04T15:32:29.317Z,9.68
2023-05-04T15:35:05.532Z,10.48
2023-05-04T15:37:34.873Z,10.20
2023-05-04T15:40:04.568Z,8.68
2023-05-04T15:42:36.754Z,10.65
2023-05-04T15:45:06.953Z,9.98
2023-05-04T15:47:36.600Z,9.18
2023-05-04T15:50:07.626Z,9.70
2023-05-04T15:52:54.663Z,9.00
2023-05-04T15:55:26.987Z,11.85
2023-05-04T15:57:56.727Z,9.43
2023-05-04T16:00:25.405Z,10.23
2023-05-04T16:02:53.942Z,9.50
2023-05-04T16:05:22.357Z,8.35
2023-05-04T16:07:54.081Z,10.88
2023-05-04T16:10:22.401Z,8.70
2023-05-04T16:12:50.617Z,9.57
2023-05-04T16:15:20.637Z,8.77
2023-05-04T16:17:48.650Z,9.00
2023-05-04T16:20:16.849Z,9.05
2023-05-04T16:22:45.347Z,9.15
2023-05-04T16:25:13.528Z,8.48
2023-05-04T16:27:41.723Z,9.13
2023-05-04T16:30:11.201Z,8.45
2023-05-04T16:32:40.662Z,8.27
2023-05-04T16:35:12.222Z,9.02
2023-05-04T16:37:42.005Z,8.20
2023-05-04T16:40:11.839Z,9.82
2023-05-04T16:42:39.906Z,10.63
2023-05-04T16:45:11.097Z,8.55
2023-05-04T16:47:41.052Z,8.15
2023-05-04T16:50:09.985Z,8.57
2023-05-04T16:52:38.093Z,9.52
2023-05-04T16:55:09.886Z,8.75
2023-05-04T16:57:42.127Z,8.95
2023-05-04T17:00:11.944Z,9.50
2023-05-04T17:02:42.152Z,10.40
2023-05-04T17:05:20.514Z,9.60
2023-05-04T17:07:53.083Z,8.93
2023-05-04T17:10:21.305Z,10.95
2023-05-04T17:12:54.316Z,9.82
2023-05-04T17:15:22.673Z,8.18
2023-05-04T17:17:52.136Z,9.05
2023-05-04T17:20:21.740Z,7.97
2023-05-04T17:22:51.474Z,10.13
2023-05-04T17:25:19.778Z,8.75
2023-05-04T17:27:47.754Z,10.73
2023-05-04T17:30:15.953Z,9.88
2023-05-04T17:32:43.933Z,12.27
2023-05-04T17:35:23.935Z,13.77
2023-05-04T17:37:55.942Z,12.23
2023-05-04T17:40:26.120Z,10.20
2023-05-04T17:42:54.512Z,9.30
2023-05-04T17:45:22.611Z,9.02
2023-05-04T17:47:52.126Z,12.32
2023-05-04T17:50:22.223Z,11.13
2023-05-04T17:52:53.736Z,9.75
2023-05-04T17:55:23.501Z,9.98
2023-05-04T17:57:51.873Z,10.75
2023-05-04T18:00:20.673Z,10.15
2023-05-04T18:02:48.786Z,9.10
2023-05-04T18:05:16.752Z,10.80
2023-05-04T18:07:46.162Z,8.35
2023-05-04T18:10:14.170Z,9.40
2023-05-04T18:12:42.429Z,9.40
2023-05-04T18:15:11.582Z,8.77
2023-05-04T18:17:40.015Z,8.82
2023-05-04T18:20:10.553Z,11.30
2023-05-04T18:22:38.733Z,8.57
2023-05-04T18:25:09.290Z,11.15
2023-05-04T18:27:37.240Z,7.57
2023-05-04T18:30:06.968Z,7.45
2023-05-04T18:32:35.584Z,7.97
2023-05-04T18:35:03.789Z,9.60
2023-05-04T18:37:31.835Z,7.85
2023-05-04T18:40:00.815Z,9.85
2023-05-04T18:42:30.743Z,8.18
2023-05-04T18:44:59.125Z,9.55
2023-05-04T18:47:27.694Z,8.95
2023-05-04T18:49:56.528Z,8.88
2023-05-04T18:52:24.643Z,8.73
2023-05-04T18:54:52.773Z,9.30
2023-05-04T18:57:21.131Z,8.80
2023-05-04T18:59:50.475Z,7.40
2023-05-04T19:02:19.153Z,7.53
2023-05-04T19:04:48.178Z,9.30
2023-05-04T19:07:17.173Z,9.02
2023-05-04T19:09:46.844Z,10.85
2023-05-04T19:12:15.638Z,7.72
2023-05-04T19:14:45.134Z,6.72
2023-05-04T19:17:15.472Z,7.38
2023-05-04T19:19:43.482Z,7.65
2023-05-04T19:22:13.408Z,8.00
2023-05-04T19:24:41.416Z,7.78
2023-05-04T19:27:09.625Z,7.32
2023-05-04T19:29:37.684Z,8.50
2023-05-04T19:32:19.772Z,11.05
2023-05-04T19:34:52.912Z,8.38
2023-05-04T19:37:21.221Z,9.38
2023-05-04T19:39:51.810Z,10.68
2023-05-04T19:42:19.825Z,11.57
2023-05-04T19:44:47.872Z,9.15
2023-05-04T19:47:16.037Z,10.68
2023-05-04T19:49:47.633Z,6.90
2023-05-04T19:52:19.019Z,7.05
2023-05-04T19:54:48.658Z,7.43
2023-05-04T19:57:16.748Z,6.68
2023-05-04T19:59:47.439Z,9.75
2023-05-04T20:02:15.846Z,10.68
2023-05-04T20:04:44.271Z,9.50
2023-05-04T20:07:12.678Z,11.50
2023-05-04T20:09:42.256Z,10.70
2023-05-04T20:12:11.307Z,11.10
2023-05-04T20:14:41.140Z,7.22
2023-05-04T20:17:09.309Z,8.18
2023-05-04T20:19:38.580Z,8.75
2023-05-04T20:22:06.755Z,9.75
2023-05-04T20:24:35.031Z,8.23
2023-05-04T20:27:05.062Z,10.73
2023-05-04T20:29:33.847Z,9.85
2023-05-04T20:32:05.598Z,9.35
2023-05-04T20:34:33.956Z,9.73
2023-05-04T20:37:03.673Z,10.43
2023-05-04T20:39:31.806Z,10.13
2023-05-04T20:42:00.691Z,7.25
2023-05-04T20:44:30.501Z,7.72
2023-05-04T20:46:58.793Z,7.15
2023-05-04T20:49:27.387Z,8.45
2023-05-04T20:51:55.514Z,7.20
2023-05-04T20:54:24.200Z,7.65
2023-05-04T20:56:52.379Z,8.27
2023-05-04T20:59:20.737Z,7.40
2023-05-04T21:01:50.541Z,8.25
2023-05-04T21:04:18.661Z,7.75
2023-05-04T21:06:48.386Z,8.65
2023-05-04T21:09:16.818Z,7.70
2023-05-04T21:11:44.816Z,7.47
2023-05-04T21:14:13.248Z,9.18
2023-05-04T21:16:41.420Z,7.78
2023-05-04T21:19:10.928Z,10.88
2023-05-04T21:21:41.203Z,8.63
2023-05-04T21:24:12.486Z,7.63
2023-05-04T21:26:41.509Z,6.65
2023-05-04T21:29:12.730Z,10.30
2023-05-04T21:31:41.440Z,9.07
2023-05-04T21:34:11.514Z,8.38
2023-05-04T21:36:40.536Z,8.52
2023-05-04T21:39:08.700Z,9.77
2023-05-04T21:41:36.768Z,10.05
2023-05-04T21:44:04.993Z,8.65
2023-05-04T21:46:33.306Z,9.18
2023-05-04T21:49:01.719Z,8.73
2023-05-04T21:51:31.747Z,8.60
2023-05-04T21:54:00.135Z,7.68
2023-05-04T21:56:28.278Z,8.70
2023-05-04T21:58:56.500Z,8.70
2023-05-04T22:01:25.218Z,9.30
2023-05-04T22:03:53.945Z,9.43
2023-05-04T22:06:24.536Z,9.55
2023-05-04T22:08:54.066Z,8.85
2023-05-04T22:11:22.589Z,8.18
2023-05-04T22:13:50.703Z,7.85
2023-05-04T22:16:20.772Z,9.55
2023-05-04T22:18:49.597Z,8.93
2023-05-04T22:21:17.692Z,9.73
2023-05-04T22:23:46.036Z,8.57
2023-05-04T22:26:15.621Z,8.68
2023-05-04T22:28:43.736Z,9.23
2023-05-04T22:31:11.751Z,10.38
2023-05-04T22:33:39.804Z,9.73
2023-05-04T22:36:08.214Z,10.00
2023-05-04T22:38:36.545Z,9.15
2023-05-04T22:41:04.639Z,9.77
2023-05-04T22:43:34.110Z,10.18
2023-05-04T22:46:02.217Z,9.23
2023-05-04T22:48:30.164Z,8.15
2023-05-04T22:50:58.176Z,10.13
2023-05-04T22:53:26.485Z,8.82
2023-05-04T22:55:54.487Z,10.32
2023-05-04T22:58:22.416Z,11.02
2023-05-04T23:00:51.878Z,9.85
2023-05-04T23:03:23.682Z,9.88
2023-05-04T23:05:52.437Z,9.00
2023-05-04T23:08:20.791Z,11.35
2023-05-04T23:10:48.889Z,10.32
2023-05-04T23:13:16.885Z,10.90
2023-05-04T23:15:45.027Z,10.77
2023-05-04T23:18:14.564Z,9.38
2023-05-04T23:20:42.667Z,8.30
2023-05-04T23:23:10.903Z,9.95
2023-05-04T23:25:39.261Z,10.07
2023-05-04T23:28:07.259Z,9.50
2023-05-04T23:30:35.302Z,9.00
2023-05-04T23:33:03.388Z,8.88
2023-05-04T23:35:33.161Z,9.68
2023-05-04T23:38:01.337Z,8.00
2023-05-04T23:40:29.744Z,7.22
2023-05-04T23:42:57.742Z,7.05
2023-05-04T23:45:25.746Z,8.20
2023-05-04T23:47:53.866Z,7.47
2023-05-04T23:50:22.727Z,9.65
2023-05-04T23:52:52.411Z,7.35
2023-05-04T23:55:20.554Z,9.43
2023-05-04T23:57:48.685Z,8.50
